sensor_id;sensor_type;location;lat;lon;timestamp;temperature;humidity
7427;DHT22;3755;59.316;18.092;2024-01-25T00:00:18;1.50;99.90
7427;DHT22;3755;59.316;18.092;2024-01-25T00:02:45;1.50;99.90
7427;DHT22;3755;59.316;18.092;2024-01-25T00:05:14;1.50;99.90
7427;DHT22;3755;59.316;18.092;2024-01-25T00:07:47;1.50;99.90
7427;DHT22;3755;59.316;18.092;2024-01-25T00:10:16;1.50;99.90
7427;DHT22;3755;59.316;18.092;2024-01-25T00:12:44;1.50;99.90
7427;DHT22;3755;59.316;18.092;2024-01-25T00:15:12;1.50;99.90
7427;DHT22;3755;59.316;18.092;2024-01-25T00:17:39;1.50;99.90
7427;DHT22;3755;59.316;18.092;2024-01-25T00:20:08;1.50;99.90
7427;DHT22;3755;59.316;18.092;2024-01-25T00:22:37;1.50;99.90
7427;DHT22;3755;59.316;18.092;2024-01-25T00:25:05;1.50;99.90
7427;DHT22;3755;59.316;18.092;2024-01-25T00:27:32;1.50;99.90
7427;DHT22;3755;59.316;18.092;2024-01-25T00:29:59;1.60;99.90
7427;DHT22;3755;59.316;18.092;2024-01-25T00:32:26;1.60;99.90
7427;DHT22;3755;59.316;18.092;2024-01-25T00:34:54;1.50;99.90
7427;DHT22;3755;59.316;18.092;2024-01-25T00:37:22;1.50;99.90
7427;DHT22;3755;59.316;18.092;2024-01-25T00:39:51;1.50;99.90
7427;DHT22;3755;59.316;18.092;2024-01-25T00:42:22;1.50;99.90
7427;DHT22;3755;59.316;18.092;2024-01-25T00:44:50;1.50;99.90
7427;DHT22;3755;59.316;18.092;2024-01-25T00:47:19;1.50;99.90
7427;DHT22;3755;59.316;18.092;2024-01-25T00:49:46;1.50;99.90
7427;DHT22;3755;59.316;18.092;2024-01-25T00:52:14;1.50;99.90
7427;DHT22;3755;59.316;18.092;2024-01-25T00:54:42;1.50;99.90
7427;DHT22;3755;59.316;18.092;2024-01-25T00:57:11;1.50;99.90
7427;DHT22;3755;59.316;18.092;2024-01-25T00:59:39;1.50;99.90
7427;DHT22;3755;59.316;18.092;2024-01-25T01:02:11;1.50;99.90
7427;DHT22;3755;59.316;18.092;2024-01-25T01:04:39;1.60;99.90
7427;DHT22;3755;59.316;18.092;2024-01-25T01:07:07;1.60;99.90
7427;DHT22;3755;59.316;18.092;2024-01-25T01:09:34;1.60;99.90
7427;DHT22;3755;59.316;18.092;2024-01-25T01:12:02;1.60;99.90
7427;DHT22;3755;59.316;18.092;2024-01-25T01:14:30;1.50;99.90
7427;DHT22;3755;59.316;18.092;2024-01-25T01:16:57;1.50;99.90
7427;DHT22;3755;59.316;18.092;2024-01-25T01:19:24;1.50;99.90
7427;DHT22;3755;59.316;18.092;2024-01-25T01:21:51;1.50;99.90
7427;DHT22;3755;59.316;18.092;2024-01-25T01:24:18;1.60;99.90
7427;DHT22;3755;59.316;18.092;2024-01-25T01:26:45;1.50;99.90
7427;DHT22;3755;59.316;18.092;2024-01-25T01:29:14;1.60;99.90
7427;DHT22;3755;59.316;18.092;2024-01-25T01:31:42;1.60;99.90
7427;DHT22;3755;59.316;18.092;2024-01-25T01:34:09;1.60;99.90
7427;DHT22;3755;59.316;18.092;2024-01-25T01:36:38;1.50;99.90
7427;DHT22;3755;59.316;18.092;2024-01-25T01:39:05;1.60;99.90
7427;DHT22;3755;59.316;18.092;2024-01-25T01:41:32;1.60;99.90
7427;DHT22;3755;59.316;18.092;2024-01-25T01:43:59;1.50;99.90
7427;DHT22;3755;59.316;18.092;2024-01-25T01:46:32;1.50;99.90
7427;DHT22;3755;59.316;18.092;2024-01-25T01:49:01;1.50;99.90
7427;DHT22;3755;59.316;18.092;2024-01-25T01:51:30;1.50;99.90
7427;DHT22;3755;59.316;18.092;2024-01-25T01:53:58;1.50;99.90
7427;DHT22;3755;59.316;18.092;2024-01-25T01:56:27;1.50;99.90
7427;DHT22;3755;59.316;18.092;2024-01-25T01:58:56;1.50;99.90
7427;DHT22;3755;59.316;18.092;2024-01-25T02:01:24;1.50;99.90
7427;DHT22;3755;59.316;18.092;2024-01-25T02:03:51;1.50;99.90
7427;DHT22;3755;59.316;18.092;2024-01-25T02:06:20;1.40;99.90
7427;DHT22;3755;59.316;18.092;2024-01-25T02:08:48;1.40;99.90
7427;DHT22;3755;59.316;18.092;2024-01-25T02:11:16;1.40;99.90
7427;DHT22;3755;59.316;18.092;2024-01-25T02:13:44;1.40;99.90
7427;DHT22;3755;59.316;18.092;2024-01-25T02:16:11;1.40;99.90
7427;DHT22;3755;59.316;18.092;2024-01-25T02:18:41;1.50;99.90
7427;DHT22;3755;59.316;18.092;2024-01-25T02:21:08;1.50;99.90
7427;DHT22;3755;59.316;18.092;2024-01-25T02:23:36;1.50;99.90
7427;DHT22;3755;59.316;18.092;2024-01-25T02:26:04;1.50;99.90
7427;DHT22;3755;59.316;18.092;2024-01-25T02:28:31;1.40;99.90
7427;DHT22;3755;59.316;18.092;2024-01-25T02:31:01;1.40;99.90
7427;DHT22;3755;59.316;18.092;2024-01-25T02:33:29;1.40;99.90
7427;DHT22;3755;59.316;18.092;2024-01-25T02:35:56;1.40;99.90
7427;DHT22;3755;59.316;18.092;2024-01-25T02:38:23;1.40;99.90
7427;DHT22;3755;59.316;18.092;2024-01-25T02:40:52;1.30;99.90
7427;DHT22;3755;59.316;18.092;2024-01-25T02:43:19;1.30;99.90
7427;DHT22;3755;59.316;18.092;2024-01-25T02:45:46;1.30;99.90
7427;DHT22;3755;59.316;18.092;2024-01-25T02:48:14;1.30;99.90
7427;DHT22;3755;59.316;18.092;2024-01-25T02:50:41;1.30;99.90
7427;DHT22;3755;59.316;18.092;2024-01-25T02:53:08;1.30;99.90
7427;DHT22;3755;59.316;18.092;2024-01-25T02:55:35;1.20;99.90
7427;DHT22;3755;59.316;18.092;2024-01-25T02:58:04;1.20;99.90
7427;DHT22;3755;59.316;18.092;2024-01-25T03:00:31;1.20;99.90
7427;DHT22;3755;59.316;18.092;2024-01-25T03:02:58;1.20;99.90
7427;DHT22;3755;59.316;18.092;2024-01-25T03:05:25;1.30;99.90
7427;DHT22;3755;59.316;18.092;2024-01-25T03:07:52;1.30;99.90
7427;DHT22;3755;59.316;18.092;2024-01-25T03:10:20;1.30;99.90
7427;DHT22;3755;59.316;18.092;2024-01-25T03:12:47;1.30;99.90
7427;DHT22;3755;59.316;18.092;2024-01-25T03:15:16;1.30;99.90
7427;DHT22;3755;59.316;18.092;2024-01-25T03:17:43;1.20;99.90
7427;DHT22;3755;59.316;18.092;2024-01-25T03:20:10;1.20;99.90
7427;DHT22;3755;59.316;18.092;2024-01-25T03:22:37;1.20;99.90
7427;DHT22;3755;59.316;18.092;2024-01-25T03:25:05;1.20;99.90
7427;DHT22;3755;59.316;18.092;2024-01-25T03:27:34;1.20;99.90
7427;DHT22;3755;59.316;18.092;2024-01-25T03:30:01;1.20;99.90
7427;DHT22;3755;59.316;18.092;2024-01-25T03:32:33;1.20;99.90
7427;DHT22;3755;59.316;18.092;2024-01-25T03:35:00;1.20;99.90
7427;DHT22;3755;59.316;18.092;2024-01-25T03:37:27;1.10;99.90
7427;DHT22;3755;59.316;18.092;2024-01-25T03:39:54;1.10;99.90
7427;DHT22;3755;59.316;18.092;2024-01-25T03:42:20;1.20;99.90
7427;DHT22;3755;59.316;18.092;2024-01-25T03:44:47;1.10;99.90
7427;DHT22;3755;59.316;18.092;2024-01-25T03:47:14;1.10;99.90
7427;DHT22;3755;59.316;18.092;2024-01-25T03:49:43;1.10;99.90
7427;DHT22;3755;59.316;18.092;2024-01-25T03:52:10;1.10;99.90
7427;DHT22;3755;59.316;18.092;2024-01-25T03:54:37;1.10;99.90
7427;DHT22;3755;59.316;18.092;2024-01-25T03:57:04;1.10;99.90
7427;DHT22;3755;59.316;18.092;2024-01-25T03:59:31;1.10;99.90
7427;DHT22;3755;59.316;18.092;2024-01-25T04:01:58;1.10;99.90
7427;DHT22;3755;59.316;18.092;2024-01-25T04:04:25;1.10;99.90
7427;DHT22;3755;59.316;18.092;2024-01-25T04:06:54;1.10;99.90
7427;DHT22;3755;59.316;18.092;2024-01-25T04:09:21;1.10;99.90
7427;DHT22;3755;59.316;18.092;2024-01-25T04:11:48;1.10;99.90
7427;DHT22;3755;59.316;18.092;2024-01-25T04:14:15;1.00;99.90
7427;DHT22;3755;59.316;18.092;2024-01-25T04:16:42;1.00;99.90
7427;DHT22;3755;59.316;18.092;2024-01-25T04:19:12;1.00;99.90
7427;DHT22;3755;59.316;18.092;2024-01-25T04:21:39;1.00;99.90
7427;DHT22;3755;59.316;18.092;2024-01-25T04:24:07;1.00;99.90
7427;DHT22;3755;59.316;18.092;2024-01-25T04:26:34;0.90;99.90
7427;DHT22;3755;59.316;18.092;2024-01-25T04:29:01;0.90;99.90
7427;DHT22;3755;59.316;18.092;2024-01-25T04:31:29;0.90;99.90
7427;DHT22;3755;59.316;18.092;2024-01-25T04:33:57;0.90;99.90
7427;DHT22;3755;59.316;18.092;2024-01-25T04:36:24;0.90;99.90
7427;DHT22;3755;59.316;18.092;2024-01-25T04:38:51;0.90;99.90
7427;DHT22;3755;59.316;18.092;2024-01-25T04:41:19;0.90;99.90
7427;DHT22;3755;59.316;18.092;2024-01-25T04:43:46;0.90;99.90
7427;DHT22;3755;59.316;18.092;2024-01-25T04:46:13;0.90;99.90
7427;DHT22;3755;59.316;18.092;2024-01-25T04:48:41;0.90;99.90
7427;DHT22;3755;59.316;18.092;2024-01-25T04:51:08;0.90;99.90
7427;DHT22;3755;59.316;18.092;2024-01-25T04:53:36;0.80;99.90
7427;DHT22;3755;59.316;18.092;2024-01-25T04:56:03;0.90;99.90
7427;DHT22;3755;59.316;18.092;2024-01-25T04:58:32;0.90;99.90
7427;DHT22;3755;59.316;18.092;2024-01-25T05:00:59;0.90;99.90
7427;DHT22;3755;59.316;18.092;2024-01-25T05:03:26;0.80;99.90
7427;DHT22;3755;59.316;18.092;2024-01-25T05:05:54;0.80;99.90
7427;DHT22;3755;59.316;18.092;2024-01-25T05:08:21;0.90;99.90
7427;DHT22;3755;59.316;18.092;2024-01-25T05:10:48;0.80;99.90
7427;DHT22;3755;59.316;18.092;2024-01-25T05:13:15;0.80;99.90
7427;DHT22;3755;59.316;18.092;2024-01-25T05:15:43;0.90;99.90
7427;DHT22;3755;59.316;18.092;2024-01-25T05:18:10;1.00;99.90
7427;DHT22;3755;59.316;18.092;2024-01-25T05:20:37;0.90;99.90
7427;DHT22;3755;59.316;18.092;2024-01-25T05:23:05;0.90;99.90
7427;DHT22;3755;59.316;18.092;2024-01-25T05:25:32;0.90;99.90
7427;DHT22;3755;59.316;18.092;2024-01-25T05:27:59;0.90;99.90
7427;DHT22;3755;59.316;18.092;2024-01-25T05:30:27;0.90;99.90
7427;DHT22;3755;59.316;18.092;2024-01-25T05:32:56;0.90;99.90
7427;DHT22;3755;59.316;18.092;2024-01-25T05:35:24;0.90;99.90
7427;DHT22;3755;59.316;18.092;2024-01-25T05:37:51;0.90;99.90
7427;DHT22;3755;59.316;18.092;2024-01-25T05:40:18;0.90;99.90
7427;DHT22;3755;59.316;18.092;2024-01-25T05:42:46;0.80;99.90
7427;DHT22;3755;59.316;18.092;2024-01-25T05:45:13;0.80;99.90
7427;DHT22;3755;59.316;18.092;2024-01-25T05:47:40;0.90;99.90
7427;DHT22;3755;59.316;18.092;2024-01-25T05:50:09;0.90;99.90
7427;DHT22;3755;59.316;18.092;2024-01-25T05:52:37;0.90;99.90
7427;DHT22;3755;59.316;18.092;2024-01-25T05:55:05;0.90;99.90
7427;DHT22;3755;59.316;18.092;2024-01-25T05:57:34;0.90;99.90
7427;DHT22;3755;59.316;18.092;2024-01-25T06:00:02;0.90;99.90
7427;DHT22;3755;59.316;18.092;2024-01-25T06:02:32;0.80;99.90
7427;DHT22;3755;59.316;18.092;2024-01-25T06:04:59;0.80;99.90
7427;DHT22;3755;59.316;18.092;2024-01-25T06:07:28;0.80;99.90
7427;DHT22;3755;59.316;18.092;2024-01-25T06:09:55;0.90;99.90
7427;DHT22;3755;59.316;18.092;2024-01-25T06:12:24;0.80;99.90
7427;DHT22;3755;59.316;18.092;2024-01-25T06:14:53;0.80;99.90
7427;DHT22;3755;59.316;18.092;2024-01-25T06:17:20;0.80;99.90
7427;DHT22;3755;59.316;18.092;2024-01-25T06:19:48;0.70;99.90
7427;DHT22;3755;59.316;18.092;2024-01-25T06:22:15;0.70;99.90
7427;DHT22;3755;59.316;18.092;2024-01-25T06:24:44;0.70;99.90
7427;DHT22;3755;59.316;18.092;2024-01-25T06:27:11;0.70;99.90
7427;DHT22;3755;59.316;18.092;2024-01-25T06:29:39;0.60;99.90
7427;DHT22;3755;59.316;18.092;2024-01-25T06:32:06;0.60;99.90
7427;DHT22;3755;59.316;18.092;2024-01-25T06:34:34;0.50;99.90
7427;DHT22;3755;59.316;18.092;2024-01-25T06:37:01;0.40;99.90
7427;DHT22;3755;59.316;18.092;2024-01-25T06:39:31;0.50;99.90
7427;DHT22;3755;59.316;18.092;2024-01-25T06:42:02;0.50;99.90
7427;DHT22;3755;59.316;18.092;2024-01-25T06:44:30;0.50;99.90
7427;DHT22;3755;59.316;18.092;2024-01-25T06:46:58;0.50;99.90
7427;DHT22;3755;59.316;18.092;2024-01-25T06:49:26;0.50;99.90
7427;DHT22;3755;59.316;18.092;2024-01-25T06:51:54;0.50;99.90
7427;DHT22;3755;59.316;18.092;2024-01-25T06:54:22;0.60;99.90
7427;DHT22;3755;59.316;18.092;2024-01-25T06:56:49;0.60;99.90
7427;DHT22;3755;59.316;18.092;2024-01-25T06:59:18;0.60;99.90
7427;DHT22;3755;59.316;18.092;2024-01-25T07:01:46;0.60;99.90
7427;DHT22;3755;59.316;18.092;2024-01-25T07:04:13;0.60;99.90
7427;DHT22;3755;59.316;18.092;2024-01-25T07:06:42;0.50;99.90
7427;DHT22;3755;59.316;18.092;2024-01-25T07:09:10;0.60;99.90
7427;DHT22;3755;59.316;18.092;2024-01-25T07:11:37;0.60;99.90
7427;DHT22;3755;59.316;18.092;2024-01-25T07:14:05;0.60;99.90
7427;DHT22;3755;59.316;18.092;2024-01-25T07:16:35;0.60;99.90
7427;DHT22;3755;59.316;18.092;2024-01-25T07:19:02;0.50;99.90
7427;DHT22;3755;59.316;18.092;2024-01-25T07:21:30;0.50;99.90
7427;DHT22;3755;59.316;18.092;2024-01-25T07:23:58;0.40;99.90
7427;DHT22;3755;59.316;18.092;2024-01-25T07:26:26;0.40;99.90
7427;DHT22;3755;59.316;18.092;2024-01-25T07:28:53;0.50;99.90
7427;DHT22;3755;59.316;18.092;2024-01-25T07:31:24;0.50;99.90
7427;DHT22;3755;59.316;18.092;2024-01-25T07:33:54;0.60;99.90
7427;DHT22;3755;59.316;18.092;2024-01-25T07:36:22;0.70;99.90
7427;DHT22;3755;59.316;18.092;2024-01-25T07:38:50;0.60;99.90
7427;DHT22;3755;59.316;18.092;2024-01-25T07:41:18;0.50;99.90
7427;DHT22;3755;59.316;18.092;2024-01-25T07:43:46;0.50;99.90
7427;DHT22;3755;59.316;18.092;2024-01-25T07:46:14;0.40;99.90
7427;DHT22;3755;59.316;18.092;2024-01-25T07:48:42;0.40;99.90
7427;DHT22;3755;59.316;18.092;2024-01-25T07:51:14;0.30;99.90
7427;DHT22;3755;59.316;18.092;2024-01-25T07:53:42;0.30;99.90
7427;DHT22;3755;59.316;18.092;2024-01-25T07:56:09;0.20;99.90
7427;DHT22;3755;59.316;18.092;2024-01-25T07:58:36;0.30;99.90
7427;DHT22;3755;59.316;18.092;2024-01-25T08:01:05;0.20;99.90
7427;DHT22;3755;59.316;18.092;2024-01-25T08:03:45;0.20;99.90
7427;DHT22;3755;59.316;18.092;2024-01-25T08:06:35;0.30;99.90
7427;DHT22;3755;59.316;18.092;2024-01-25T08:09:16;0.30;99.90
7427;DHT22;3755;59.316;18.092;2024-01-25T08:11:44;0.30;99.90
7427;DHT22;3755;59.316;18.092;2024-01-25T08:14:13;0.30;99.90
7427;DHT22;3755;59.316;18.092;2024-01-25T08:16:42;0.30;99.90
7427;DHT22;3755;59.316;18.092;2024-01-25T08:19:09;0.30;99.90
7427;DHT22;3755;59.316;18.092;2024-01-25T08:21:46;0.30;99.90
7427;DHT22;3755;59.316;18.092;2024-01-25T08:24:15;0.30;99.90
7427;DHT22;3755;59.316;18.092;2024-01-25T08:26:43;0.30;99.90
7427;DHT22;3755;59.316;18.092;2024-01-25T08:29:11;0.40;99.90
7427;DHT22;3755;59.316;18.092;2024-01-25T08:31:38;0.30;99.90
7427;DHT22;3755;59.316;18.092;2024-01-25T08:34:08;0.40;99.90
7427;DHT22;3755;59.316;18.092;2024-01-25T08:36:35;0.40;99.90
7427;DHT22;3755;59.316;18.092;2024-01-25T08:39:04;0.40;99.90
7427;DHT22;3755;59.316;18.092;2024-01-25T08:41:31;0.50;99.90
7427;DHT22;3755;59.316;18.092;2024-01-25T08:43:59;0.60;99.90
7427;DHT22;3755;59.316;18.092;2024-01-25T08:46:32;0.50;99.90
7427;DHT22;3755;59.316;18.092;2024-01-25T08:49:02;0.50;99.90
7427;DHT22;3755;59.316;18.092;2024-01-25T08:51:34;0.50;99.90
7427;DHT22;3755;59.316;18.092;2024-01-25T08:54:04;0.40;99.90
7427;DHT22;3755;59.316;18.092;2024-01-25T08:56:32;0.40;99.90
7427;DHT22;3755;59.316;18.092;2024-01-25T08:58:59;0.40;99.90
7427;DHT22;3755;59.316;18.092;2024-01-25T09:01:27;0.50;99.90
7427;DHT22;3755;59.316;18.092;2024-01-25T09:03:55;0.40;99.90
7427;DHT22;3755;59.316;18.092;2024-01-25T09:06:26;0.50;99.90
7427;DHT22;3755;59.316;18.092;2024-01-25T09:08:53;0.40;99.90
7427;DHT22;3755;59.316;18.092;2024-01-25T09:11:24;0.40;99.90
7427;DHT22;3755;59.316;18.092;2024-01-25T09:13:51;0.40;99.90
7427;DHT22;3755;59.316;18.092;2024-01-25T09:16:20;0.40;99.90
7427;DHT22;3755;59.316;18.092;2024-01-25T09:18:50;0.40;99.90
7427;DHT22;3755;59.316;18.092;2024-01-25T09:21:17;0.40;99.90
7427;DHT22;3755;59.316;18.092;2024-01-25T09:23:44;0.40;99.90
7427;DHT22;3755;59.316;18.092;2024-01-25T09:26:12;0.40;99.90
7427;DHT22;3755;59.316;18.092;2024-01-25T09:28:40;0.30;99.90
7427;DHT22;3755;59.316;18.092;2024-01-25T09:31:07;0.30;99.90
7427;DHT22;3755;59.316;18.092;2024-01-25T09:33:35;0.30;99.90
7427;DHT22;3755;59.316;18.092;2024-01-25T09:36:02;0.20;99.90
7427;DHT22;3755;59.316;18.092;2024-01-25T09:38:29;0.20;99.90
7427;DHT22;3755;59.316;18.092;2024-01-25T09:40:57;0.20;99.90
7427;DHT22;3755;59.316;18.092;2024-01-25T09:43:25;0.30;99.90
7427;DHT22;3755;59.316;18.092;2024-01-25T09:45:54;0.20;99.90
7427;DHT22;3755;59.316;18.092;2024-01-25T09:48:22;0.20;99.90
7427;DHT22;3755;59.316;18.092;2024-01-25T09:50:49;0.20;99.90
7427;DHT22;3755;59.316;18.092;2024-01-25T09:53:21;0.30;99.90
7427;DHT22;3755;59.316;18.092;2024-01-25T09:55:55;0.30;99.90
7427;DHT22;3755;59.316;18.092;2024-01-25T09:58:28;0.40;99.90
7427;DHT22;3755;59.316;18.092;2024-01-25T10:01:01;0.30;99.90
7427;DHT22;3755;59.316;18.092;2024-01-25T10:03:33;0.30;99.90
7427;DHT22;3755;59.316;18.092;2024-01-25T10:06:01;0.40;99.90
7427;DHT22;3755;59.316;18.092;2024-01-25T10:08:37;0.30;99.90
7427;DHT22;3755;59.316;18.092;2024-01-25T10:11:04;0.30;99.90
7427;DHT22;3755;59.316;18.092;2024-01-25T10:13:41;0.40;99.90
7427;DHT22;3755;59.316;18.092;2024-01-25T10:16:13;0.40;99.90
7427;DHT22;3755;59.316;18.092;2024-01-25T10:18:47;0.30;99.90
7427;DHT22;3755;59.316;18.092;2024-01-25T10:21:29;0.20;99.90
7427;DHT22;3755;59.316;18.092;2024-01-25T10:23:57;0.30;99.90
7427;DHT22;3755;59.316;18.092;2024-01-25T10:26:28;0.20;99.90
7427;DHT22;3755;59.316;18.092;2024-01-25T10:29:01;0.20;99.90
7427;DHT22;3755;59.316;18.092;2024-01-25T10:31:37;0.20;99.90
7427;DHT22;3755;59.316;18.092;2024-01-25T10:34:25;0.10;99.90
7427;DHT22;3755;59.316;18.092;2024-01-25T10:36:53;0.20;99.90
7427;DHT22;3755;59.316;18.092;2024-01-25T10:39:21;0.20;99.90
7427;DHT22;3755;59.316;18.092;2024-01-25T10:41:49;0.20;99.90
7427;DHT22;3755;59.316;18.092;2024-01-25T10:44:19;0.20;99.90
7427;DHT22;3755;59.316;18.092;2024-01-25T10:46:49;0.20;99.90
7427;DHT22;3755;59.316;18.092;2024-01-25T10:49:18;0.10;99.90
7427;DHT22;3755;59.316;18.092;2024-01-25T10:51:46;0.20;99.90
7427;DHT22;3755;59.316;18.092;2024-01-25T10:54:14;0.10;99.90
7427;DHT22;3755;59.316;18.092;2024-01-25T10:56:43;0.10;99.90
7427;DHT22;3755;59.316;18.092;2024-01-25T10:59:10;0.20;99.90
7427;DHT22;3755;59.316;18.092;2024-01-25T11:01:38;0.30;99.90
7427;DHT22;3755;59.316;18.092;2024-01-25T11:04:15;0.30;99.90
7427;DHT22;3755;59.316;18.092;2024-01-25T11:06:44;0.20;99.90
7427;DHT22;3755;59.316;18.092;2024-01-25T11:09:17;0.20;99.90
7427;DHT22;3755;59.316;18.092;2024-01-25T11:11:47;0.20;99.90
7427;DHT22;3755;59.316;18.092;2024-01-25T11:14:15;0.20;99.90
7427;DHT22;3755;59.316;18.092;2024-01-25T11:16:43;0.30;99.90
7427;DHT22;3755;59.316;18.092;2024-01-25T11:19:22;0.30;99.90
7427;DHT22;3755;59.316;18.092;2024-01-25T11:21:50;0.30;99.90
7427;DHT22;3755;59.316;18.092;2024-01-25T11:24:21;0.30;99.90
7427;DHT22;3755;59.316;18.092;2024-01-25T11:26:49;0.30;99.90
7427;DHT22;3755;59.316;18.092;2024-01-25T11:29:19;0.40;99.90
7427;DHT22;3755;59.316;18.092;2024-01-25T11:31:49;0.30;99.90
7427;DHT22;3755;59.316;18.092;2024-01-25T11:34:17;0.30;99.90
7427;DHT22;3755;59.316;18.092;2024-01-25T11:36:46;0.20;99.90
7427;DHT22;3755;59.316;18.092;2024-01-25T11:39:14;0.10;99.90
7427;DHT22;3755;59.316;18.092;2024-01-25T11:41:43;0.00;99.90
7427;DHT22;3755;59.316;18.092;2024-01-25T11:44:11;0.10;99.90
7427;DHT22;3755;59.316;18.092;2024-01-25T11:46:39;0.00;99.90
7427;DHT22;3755;59.316;18.092;2024-01-25T11:49:08;0.00;99.90
7427;DHT22;3755;59.316;18.092;2024-01-25T11:51:35;-0.10;99.90
7427;DHT22;3755;59.316;18.092;2024-01-25T11:54:07;-0.10;99.90
7427;DHT22;3755;59.316;18.092;2024-01-25T11:56:38;-0.10;99.90
7427;DHT22;3755;59.316;18.092;2024-01-25T11:59:08;-0.10;99.90
7427;DHT22;3755;59.316;18.092;2024-01-25T12:01:36;-0.10;99.90
7427;DHT22;3755;59.316;18.092;2024-01-25T12:04:04;-0.20;99.90
7427;DHT22;3755;59.316;18.092;2024-01-25T12:06:33;-0.20;99.90
7427;DHT22;3755;59.316;18.092;2024-01-25T12:09:12;-0.30;99.90
7427;DHT22;3755;59.316;18.092;2024-01-25T12:11:43;-0.30;99.90
7427;DHT22;3755;59.316;18.092;2024-01-25T12:14:11;-0.30;99.90
7427;DHT22;3755;59.316;18.092;2024-01-25T12:16:38;-0.30;99.90
7427;DHT22;3755;59.316;18.092;2024-01-25T12:19:05;-0.30;99.90
7427;DHT22;3755;59.316;18.092;2024-01-25T12:21:33;-0.30;99.90
7427;DHT22;3755;59.316;18.092;2024-01-25T12:24:02;-0.30;99.90
7427;DHT22;3755;59.316;18.092;2024-01-25T12:26:34;-0.30;99.90
7427;DHT22;3755;59.316;18.092;2024-01-25T12:29:01;-0.30;99.90
7427;DHT22;3755;59.316;18.092;2024-01-25T12:31:29;-0.30;99.90
7427;DHT22;3755;59.316;18.092;2024-01-25T12:33:56;-0.20;99.90
7427;DHT22;3755;59.316;18.092;2024-01-25T12:36:23;-0.30;99.90
7427;DHT22;3755;59.316;18.092;2024-01-25T12:38:51;-0.30;99.90
7427;DHT22;3755;59.316;18.092;2024-01-25T12:41:21;-0.30;99.90
7427;DHT22;3755;59.316;18.092;2024-01-25T12:43:51;-0.20;99.90
7427;DHT22;3755;59.316;18.092;2024-01-25T12:46:19;-0.10;99.90
7427;DHT22;3755;59.316;18.092;2024-01-25T12:48:46;-0.20;99.90
7427;DHT22;3755;59.316;18.092;2024-01-25T12:51:14;-0.20;99.90
7427;DHT22;3755;59.316;18.092;2024-01-25T12:53:43;-0.10;99.90
7427;DHT22;3755;59.316;18.092;2024-01-25T12:56:10;0.00;99.90
7427;DHT22;3755;59.316;18.092;2024-01-25T12:58:37;0.00;99.90
7427;DHT22;3755;59.316;18.092;2024-01-25T13:01:06;0.00;99.90
7427;DHT22;3755;59.316;18.092;2024-01-25T13:03:34;0.10;99.90
7427;DHT22;3755;59.316;18.092;2024-01-25T13:06:01;0.20;99.90
7427;DHT22;3755;59.316;18.092;2024-01-25T13:08:29;0.20;99.90
7427;DHT22;3755;59.316;18.092;2024-01-25T13:10:56;0.20;99.90
7427;DHT22;3755;59.316;18.092;2024-01-25T13:13:23;0.20;99.90
7427;DHT22;3755;59.316;18.092;2024-01-25T13:15:53;0.00;99.90
7427;DHT22;3755;59.316;18.092;2024-01-25T13:18:23;0.00;99.90
7427;DHT22;3755;59.316;18.092;2024-01-25T13:20:50;-0.10;99.90
7427;DHT22;3755;59.316;18.092;2024-01-25T13:23:17;-0.10;99.90
7427;DHT22;3755;59.316;18.092;2024-01-25T13:25:46;-0.20;99.90
7427;DHT22;3755;59.316;18.092;2024-01-25T13:28:13;-0.20;99.90
7427;DHT22;3755;59.316;18.092;2024-01-25T13:30:41;-0.30;99.90
7427;DHT22;3755;59.316;18.092;2024-01-25T13:33:08;-0.30;99.90
7427;DHT22;3755;59.316;18.092;2024-01-25T13:35:36;-0.20;99.90
7427;DHT22;3755;59.316;18.092;2024-01-25T13:38:04;-0.20;99.90
7427;DHT22;3755;59.316;18.092;2024-01-25T13:40:31;-0.10;99.90
7427;DHT22;3755;59.316;18.092;2024-01-25T13:43:00;-0.20;99.90
7427;DHT22;3755;59.316;18.092;2024-01-25T13:45:35;-0.30;99.90
7427;DHT22;3755;59.316;18.092;2024-01-25T13:48:09;-0.40;99.90
7427;DHT22;3755;59.316;18.092;2024-01-25T13:50:47;-0.40;99.90
7427;DHT22;3755;59.316;18.092;2024-01-25T13:53:17;-0.40;99.90
7427;DHT22;3755;59.316;18.092;2024-01-25T13:55:48;-0.40;99.90
7427;DHT22;3755;59.316;18.092;2024-01-25T13:58:21;-0.40;99.90
7427;DHT22;3755;59.316;18.092;2024-01-25T14:00:52;-0.50;99.90
7427;DHT22;3755;59.316;18.092;2024-01-25T14:03:33;-0.50;99.90
7427;DHT22;3755;59.316;18.092;2024-01-25T14:06:22;-0.60;99.90
7427;DHT22;3755;59.316;18.092;2024-01-25T14:09:06;-0.60;99.90
7427;DHT22;3755;59.316;18.092;2024-01-25T14:11:33;-0.60;99.90
7427;DHT22;3755;59.316;18.092;2024-01-25T14:14:03;-0.50;99.90
7427;DHT22;3755;59.316;18.092;2024-01-25T14:16:31;-0.60;99.90
7427;DHT22;3755;59.316;18.092;2024-01-25T14:19:13;-0.60;99.90
7427;DHT22;3755;59.316;18.092;2024-01-25T14:21:44;-0.50;99.90
7427;DHT22;3755;59.316;18.092;2024-01-25T14:24:13;-0.50;99.90
7427;DHT22;3755;59.316;18.092;2024-01-25T14:26:41;-0.50;99.90
7427;DHT22;3755;59.316;18.092;2024-01-25T14:29:08;-0.60;99.90
7427;DHT22;3755;59.316;18.092;2024-01-25T14:31:36;-0.50;99.90
7427;DHT22;3755;59.316;18.092;2024-01-25T14:34:08;-0.50;99.90
7427;DHT22;3755;59.316;18.092;2024-01-25T14:36:45;-0.50;99.90
7427;DHT22;3755;59.316;18.092;2024-01-25T14:39:20;-0.50;99.90
7427;DHT22;3755;59.316;18.092;2024-01-25T14:41:47;-0.50;99.90
7427;DHT22;3755;59.316;18.092;2024-01-25T14:44:15;-0.50;99.90
7427;DHT22;3755;59.316;18.092;2024-01-25T14:46:43;-0.50;99.90
7427;DHT22;3755;59.316;18.092;2024-01-25T14:49:10;-0.50;99.90
7427;DHT22;3755;59.316;18.092;2024-01-25T14:51:38;-0.50;99.90
7427;DHT22;3755;59.316;18.092;2024-01-25T14:54:07;-0.50;99.90
7427;DHT22;3755;59.316;18.092;2024-01-25T14:56:37;-0.50;99.90
7427;DHT22;3755;59.316;18.092;2024-01-25T14:59:05;-0.60;99.90
7427;DHT22;3755;59.316;18.092;2024-01-25T15:01:33;-0.60;99.90
7427;DHT22;3755;59.316;18.092;2024-01-25T15:04:03;-0.60;99.90
7427;DHT22;3755;59.316;18.092;2024-01-25T15:06:31;-0.60;99.90
7427;DHT22;3755;59.316;18.092;2024-01-25T15:08:59;-0.50;99.90
7427;DHT22;3755;59.316;18.092;2024-01-25T15:11:28;-0.40;99.90
7427;DHT22;3755;59.316;18.092;2024-01-25T15:14:09;-0.50;99.90
7427;DHT22;3755;59.316;18.092;2024-01-25T15:16:38;-0.50;99.90
7427;DHT22;3755;59.316;18.092;2024-01-25T15:19:06;-0.60;99.90
7427;DHT22;3755;59.316;18.092;2024-01-25T15:21:33;-0.70;99.90
7427;DHT22;3755;59.316;18.092;2024-01-25T15:24:02;-0.60;99.90
7427;DHT22;3755;59.316;18.092;2024-01-25T15:26:31;-0.60;99.90
7427;DHT22;3755;59.316;18.092;2024-01-25T15:28:58;-0.60;99.90
7427;DHT22;3755;59.316;18.092;2024-01-25T15:31:27;-0.50;99.90
7427;DHT22;3755;59.316;18.092;2024-01-25T15:33:55;-0.60;99.90
7427;DHT22;3755;59.316;18.092;2024-01-25T15:36:23;-0.40;99.90
7427;DHT22;3755;59.316;18.092;2024-01-25T15:38:51;-0.60;99.90
7427;DHT22;3755;59.316;18.092;2024-01-25T15:41:18;-0.50;99.90
7427;DHT22;3755;59.316;18.092;2024-01-25T15:43:49;-0.50;99.90
7427;DHT22;3755;59.316;18.092;2024-01-25T15:46:16;-0.60;99.90
7427;DHT22;3755;59.316;18.092;2024-01-25T15:48:43;-0.60;99.90
7427;DHT22;3755;59.316;18.092;2024-01-25T15:51:12;-0.60;99.90
7427;DHT22;3755;59.316;18.092;2024-01-25T15:53:39;-0.60;99.90
7427;DHT22;3755;59.316;18.092;2024-01-25T15:56:07;-0.70;99.90
7427;DHT22;3755;59.316;18.092;2024-01-25T15:58:36;-0.70;99.90
7427;DHT22;3755;59.316;18.092;2024-01-25T16:01:04;-0.70;99.90
7427;DHT22;3755;59.316;18.092;2024-01-25T16:03:31;-0.80;99.90
7427;DHT22;3755;59.316;18.092;2024-01-25T16:05:59;-0.80;99.90